Terminal Aerodrome Forecast
Issued by NWS

Home | Current Version | Previous Version | Text Only | Print | Product List | Glossary On
Versions: 1 2 3 4 5 6 7 8 9 10 11 12 13 14 15 16 17 18 19 20
000
FTAK31 PANC 250530
TAFACD
TAF
PACD 250530Z 2506/2606 16008KT P6SM SCT025 BKN040
      TEMPO 2506/2510 -SHRA BKN025
     FM251000 19008KT P6SM -SHRA BKN025 BKN035
     FM251800 26004KT P6SM VCSH BKN025
     FM260000 31010KT P6SM VCSH BKN035=

USA.gov is the U.S. government's official web portal to all federal, state and local government web resources and services.